Time;durP1;ratioP1;P1;durP2;ratioP2;P2;SDS_P1;SDS_P2;PMS_P1;PMS_P2;Temp;Humidity;BMP_temperature;BMP_pressure;BME280_temperature;BME280_humidity;BME280_pressure;Samples;Min_cycle;Max_cycle;Signal;HPM_P1;HPM_P2
2023/02/06 00:02:48;;;;;;;22.70;12.90;;;;;;;3.55;100.00;102540.59;20893013;28;20084;-73
2023/02/06 00:12:50;;;;;;;20.08;11.65;;;;;;;3.53;100.00;102537.03;20893992;28;20061;-72
2023/02/06 00:22:51;;;;;;;22.75;12.80;;;;;;;3.50;100.00;102531.72;20894523;28;20096;-72
2023/02/06 00:32:52;;;;;;;21.42;13.02;;;;;;;3.36;100.00;102536.25;20891156;28;20053;-72
2023/02/06 00:42:54;;;;;;;20.23;12.40;;;;;;;3.46;100.00;102534.97;20891592;28;20063;-72
2023/02/06 00:52:55;;;;;;;20.13;12.05;;;;;;;3.32;100.00;102537.78;20890847;28;20068;-72
2023/02/06 01:02:56;;;;;;;19.58;11.30;;;;;;;3.30;100.00;102534.22;20972822;28;20428;-71
2023/02/06 01:12:57;;;;;;;18.85;11.70;;;;;;;3.15;100.00;102548.13;20971033;28;20088;-71
2023/02/06 01:22:59;;;;;;;18.40;11.52;;;;;;;3.12;100.00;102548.00;20971128;28;20189;-71
2023/02/06 01:33:00;;;;;;;21.60;12.70;;;;;;;3.10;100.00;102555.66;20969801;28;20139;-71
2023/02/06 01:43:07;;;;;;;19.80;11.88;;;;;;;3.08;100.00;102558.19;20969133;28;20846;-72
2023/02/06 01:53:08;;;;;;;21.40;13.05;;;;;;;3.13;100.00;102549.78;20967290;28;20052;-72
2023/02/06 02:03:09;;;;;;;22.05;13.02;;;;;;;3.02;100.00;102546.66;20970143;28;20098;-71
2023/02/06 02:13:10;;;;;;;24.33;13.80;;;;;;;3.03;100.00;102532.91;20965772;28;20398;-71
2023/02/06 02:23:12;;;;;;;25.10;14.95;;;;;;;2.89;100.00;102532.22;20979263;28;20060;-71
2023/02/06 02:33:13;;;;;;;24.58;15.15;;;;;;;2.88;100.00;102542.50;20983779;28;20056;-70
2023/02/06 02:43:15;;;;;;;29.05;16.05;;;;;;;2.77;100.00;102537.66;20982502;28;20422;-70
2023/02/06 02:53:16;;;;;;;27.38;15.85;;;;;;;2.77;100.00;102534.19;20982487;28;20048;-70
2023/02/06 03:03:19;;;;;;;31.00;16.88;;;;;;;2.88;100.00;102529.56;20981515;28;20052;-70
2023/02/06 03:13:20;;;;;;;35.55;18.85;;;;;;;2.85;100.00;102534.56;20979023;28;20045;-71
2023/02/06 03:23:22;;;;;;;36.75;18.60;;;;;;;2.74;100.00;102534.94;20956019;28;20049;-70
2023/02/06 03:33:23;;;;;;;36.15;18.40;;;;;;;2.85;100.00;102532.00;20977807;28;20053;-70
2023/02/06 03:43:24;;;;;;;34.83;19.05;;;;;;;2.65;100.00;102531.88;20978945;28;20056;-70
2023/02/06 03:53:25;;;;;;;34.60;19.35;;;;;;;2.63;100.00;102536.06;20977013;28;20657;-71
2023/02/06 04:03:27;;;;;;;35.78;18.95;;;;;;;2.66;100.00;102531.06;20975896;28;20044;-71
2023/02/06 04:13:28;;;;;;;38.45;20.00;;;;;;;2.63;100.00;102542.94;20976591;28;20071;-71
2023/02/06 04:23:29;;;;;;;36.95;19.30;;;;;;;2.58;100.00;102543.59;20976302;28;20543;-71
2023/02/06 04:33:30;;;;;;;34.05;19.23;;;;;;;2.50;100.00;102549.19;20974823;28;20055;-71
2023/02/06 04:43:32;;;;;;;34.95;18.08;;;;;;;2.49;100.00;102558.66;20973546;28;20059;-71
2023/02/06 04:53:33;;;;;;;31.10;16.95;;;;;;;2.43;100.00;102549.69;20972736;28;20052;-71
2023/02/06 05:03:34;;;;;;;32.65;17.35;;;;;;;2.48;100.00;102540.47;20972148;28;20273;-71
2023/02/06 05:13:36;;;;;;;36.92;18.77;;;;;;;2.59;100.00;102544.50;20972473;28;20048;-70
2023/02/06 05:23:37;;;;;;;33.28;17.42;;;;;;;2.45;100.00;102530.88;20970122;28;20060;-71
2023/02/06 05:33:38;;;;;;;33.92;18.35;;;;;;;2.37;100.00;102539.03;20968783;28;20056;-70
2023/02/06 05:43:39;;;;;;;40.75;21.67;;;;;;;2.09;100.00;102537.56;20969472;28;20511;-71
2023/02/06 05:53:41;;;;;;;39.40;21.73;;;;;;;2.00;100.00;102553.47;20961603;28;20049;-70
2023/02/06 06:03:42;;;;;;;41.55;21.95;;;;;;;1.94;100.00;102560.91;20884716;28;20049;-70
2023/02/06 06:13:43;;;;;;;43.95;21.95;;;;;;;1.97;100.00;102560.19;20886006;28;20059;-71
2023/02/06 06:23:45;;;;;;;42.80;22.42;;;;;;;2.05;100.00;102564.06;20885337;28;20087;-72
2023/02/06 06:33:46;;;;;;;41.47;21.05;;;;;;;2.06;100.00;102550.34;20884885;28;20052;-72
2023/02/06 06:43:47;;;;;;;42.72;22.23;;;;;;;2.11;100.00;102535.97;20883832;28;20045;-71
2023/02/06 06:53:51;;;;;;;42.10;21.10;;;;;;;2.00;100.00;102560.34;20885672;28;20044;-72
2023/02/06 07:03:52;;;;;;;45.75;21.73;;;;;;;2.06;100.00;102534.84;20884109;28;20065;-71
2023/02/06 07:13:54;;;;;;;37.72;19.27;;;;;;;2.13;100.00;102539.50;20897684;28;20041;-72
2023/02/06 07:23:55;;;;;;;33.33;18.00;;;;;;;2.00;100.00;102550.00;20884496;28;20066;-72
2023/02/06 07:33:56;;;;;;;35.33;19.70;;;;;;;2.11;100.00;102579.91;20870971;28;20493;-71
2023/02/06 07:43:58;;;;;;;31.98;18.70;;;;;;;2.08;100.00;102579.72;20877629;28;20053;-71
2023/02/06 07:53:59;;;;;;;32.00;18.10;;;;;;;2.11;100.00;102572.16;20885611;28;20268;-72
2023/02/06 08:04:00;;;;;;;31.38;17.25;;;;;;;2.25;100.00;102571.19;20965987;28;20459;-71
2023/02/06 08:14:02;;;;;;;31.73;17.55;;;;;;;2.13;100.00;102578.28;20977744;28;20047;-72
2023/02/06 08:24:03;;;;;;;28.02;16.05;;;;;;;2.17;100.00;102559.56;20975945;28;20044;-73
2023/02/06 08:34:04;;;;;;;27.58;16.20;;;;;;;2.21;100.00;102558.03;20973766;28;20048;-73
2023/02/06 08:44:06;;;;;;;26.00;15.23;;;;;;;2.26;100.00;102549.69;20973059;28;20386;-73
2023/02/06 08:54:07;;;;;;;26.20;13.52;;;;;;;2.34;100.00;102549.19;20973925;28;20067;-73
2023/02/06 09:04:08;;;;;;;22.17;12.45;;;;;;;2.38;100.00;102564.06;20973868;28;20063;-73
2023/02/06 09:14:09;;;;;;;23.00;13.00;;;;;;;2.71;100.00;102555.47;20973043;28;20401;-73
2023/02/06 09:24:11;;;;;;;21.05;12.35;;;;;;;2.78;100.00;102547.22;20965276;28;20040;-73
2023/02/06 09:34:12;;;;;;;23.33;12.90;;;;;;;2.80;100.00;102550.75;20969495;28;20052;-73
2023/02/06 09:44:13;;;;;;;23.20;13.20;;;;;;;2.86;100.00;102538.94;20971689;28;20048;-73
2023/02/06 09:54:15;;;;;;;23.50;12.35;;;;;;;2.98;100.00;102532.69;20969449;28;20428;-73
2023/02/06 10:04:16;;;;;;;23.88;12.57;;;;;;;3.01;100.00;102534.50;20969488;28;20052;-73
2023/02/06 10:14:21;;;;;;;22.80;12.15;;;;;;;2.94;100.00;102525.56;20969599;28;20520;-73
2023/02/06 10:24:22;;;;;;;;;;;;;;;3.19;100.00;102494.00;20967533;28;20136;-72
2023/02/06 10:34:23;;;;;;;25.02;13.77;;;;;;;3.22;100.00;102498.44;20967019;28;20269;-73
2023/02/06 10:44:24;;;;;;;26.10;12.95;;;;;;;3.33;100.00;102486.88;20980127;28;20475;-72
2023/02/06 10:54:26;;;;;;;20.05;9.10;;;;;;;3.40;100.00;102475.09;20981715;28;20504;-72
2023/02/06 11:04:27;;;;;;;17.25;8.65;;;;;;;3.71;100.00;102469.66;20978677;28;20052;-72
2023/02/06 11:14:28;;;;;;;11.75;7.20;;;;;;;3.46;100.00;102463.34;20981394;28;20052;-72
2023/02/06 11:24:29;;;;;;;16.83;9.57;;;;;;;3.93;100.00;102455.94;20980868;28;20052;-72
2023/02/06 11:34:31;;;;;;;15.23;8.38;;;;;;;3.70;100.00;102431.63;20979349;28;20055;-72
2023/02/06 11:44:32;;;;;;;14.43;7.85;;;;;;;4.05;100.00;102441.81;20977726;28;20044;-72
2023/02/06 11:54:34;;;;;;;14.23;6.65;;;;;;;4.07;100.00;102428.91;20977871;28;20070;-72
2023/02/06 12:04:35;;;;;;;13.65;7.20;;;;;;;4.42;100.00;102420.06;20975398;28;20452;-72
2023/02/06 12:14:36;;;;;;;20.95;10.27;;;;;;;4.21;100.00;102417.44;20977249;28;20048;-72
2023/02/06 12:24:39;;;;;;;10.50;5.43;;;;;;;4.44;100.00;102399.38;20970089;28;20055;-71
2023/02/06 12:34:44;;;;;;;11.70;5.47;;;;;;;4.50;100.00;102376.25;20969491;28;20049;-72
2023/02/06 12:44:45;;;;;;;8.18;3.22;;;;;;;4.30;100.00;102383.22;20973551;28;20047;-72
2023/02/06 12:54:46;;;;;;;8.98;3.72;;;;;;;4.70;100.00;102377.97;20958039;28;20045;-72
2023/02/06 13:04:48;;;;;;;8.25;4.00;;;;;;;4.57;100.00;102360.16;20971343;28;20056;-72
2023/02/06 13:14:49;;;;;;;9.52;4.95;;;;;;;4.99;100.00;102332.41;20961959;28;20048;-72
2023/02/06 13:24:50;;;;;;;8.43;4.00;;;;;;;4.68;100.00;102330.31;20946396;28;20307;-72
2023/02/06 13:34:52;;;;;;;13.77;4.85;;;;;;;4.72;100.00;102333.91;20949888;28;20493;-72
2023/02/06 13:44:53;;;;;;;8.35;4.28;;;;;;;4.72;100.00;102318.34;20968864;28;20045;-72
2023/02/06 13:54:55;;;;;;;8.60;4.60;;;;;;;4.94;100.00;102314.88;20962370;28;20048;-73
2023/02/06 14:04:56;;;;;;;8.18;4.03;;;;;;;4.91;100.00;102312.16;20968434;28;20048;-72
2023/02/06 14:14:57;;;;;;;9.68;4.10;;;;;;;4.79;100.00;102318.66;20828710;28;62673;-72
2023/02/06 14:25:03;;;;;;;7.60;4.25;;;;;;;4.83;100.00;102323.13;20824811;28;20052;-71
2023/02/06 14:35:04;;;;;;;9.88;4.40;;;;;;;4.67;100.00;102319.88;20812549;28;20045;-72
2023/02/06 14:45:06;;;;;;;12.35;5.28;;;;;;;4.42;100.00;102315.44;20796465;28;20060;-72
2023/02/06 14:55:07;;;;;;;11.05;4.90;;;;;;;4.59;100.00;102306.59;20812977;28;20049;-69
2023/02/06 15:05:08;;;;;;;8.80;4.13;;;;;;;4.81;100.00;102296.22;20811585;28;20049;-72
2023/02/06 15:15:09;;;;;;;8.45;4.45;;;;;;;5.11;100.00;102306.00;20778379;28;20053;-72
2023/02/06 15:25:11;;;;;;;9.70;4.60;;;;;;;4.82;100.00;102310.09;20773176;28;20136;-72
2023/02/06 15:35:12;;;;;;;12.15;5.55;;;;;;;4.69;100.00;102300.94;20791374;28;20529;-73
2023/02/06 15:45:14;;;;;;;8.00;4.22;;;;;;;4.63;100.00;102300.72;20787085;28;20056;-73
2023/02/06 15:55:15;;;;;;;12.82;4.50;;;;;;;4.41;100.00;102296.41;20788220;28;20049;-73
2023/02/06 16:05:16;;;;;;;11.40;5.80;;;;;;;4.33;100.00;102293.50;20769468;28;20045;-73
2023/02/06 16:15:17;;;;;;;12.40;5.78;;;;;;;4.10;100.00;102294.25;20770058;28;20437;-72
2023/02/06 16:25:20;;;;;;;12.70;7.03;;;;;;;3.90;100.00;102306.41;20779772;28;20078;-73
2023/02/06 16:35:21;;;;;;;16.42;7.38;;;;;;;3.67;100.00;102322.66;20778050;28;20063;-73
2023/02/06 16:45:22;;;;;;;48.92;16.55;;;;;;;3.50;100.00;102315.06;20772105;28;20491;-73
2023/02/06 16:55:24;;;;;;;48.58;16.80;;;;;;;3.32;100.00;102341.03;20771162;28;20057;-74
2023/02/06 17:05:25;;;;;;;22.05;10.63;;;;;;;3.40;100.00;102332.69;20787436;28;20064;-74
2023/02/06 17:15:27;;;;;;;21.73;9.90;;;;;;;3.38;100.00;102339.53;20801898;28;20053;-75
2023/02/06 17:25:29;;;;;;;23.70;12.23;;;;;;;3.21;100.00;102334.50;20822251;28;20053;-73
2023/02/06 17:35:31;;;;;;;16.52;8.95;;;;;;;3.24;100.00;102344.97;20765869;28;20473;-74
2023/02/06 17:45:32;;;;;;;30.90;15.60;;;;;;;3.26;100.00;102335.56;20767406;28;20059;-74
2023/02/06 17:55:33;;;;;;;47.00;20.60;;;;;;;2.92;100.00;102327.06;20771579;28;20548;-73
2023/02/06 18:05:35;;;;;;;34.28;14.60;;;;;;;2.70;100.00;102292.47;20740768;28;20057;-73
2023/02/06 18:15:36;;;;;;;23.33;11.48;;;;;;;2.53;100.00;102280.41;20712892;28;20054;-73
2023/02/06 18:25:38;;;;;;;27.17;14.45;;;;;;;2.18;100.00;102277.03;20717542;28;20061;-73
2023/02/06 18:35:39;;;;;;;26.65;14.65;;;;;;;1.60;100.00;102281.91;20708639;28;20061;-74
2023/02/06 18:45:41;;;;;;;18.23;10.10;;;;;;;1.58;100.00;102286.09;20714984;28;20085;-73
2023/02/06 18:55:42;;;;;;;19.73;10.48;;;;;;;1.69;100.00;102279.78;20717266;28;20057;-73
2023/02/06 19:05:43;;;;;;;16.98;7.97;;;;;;;1.96;100.00;102272.50;20727498;28;20057;-72
2023/02/06 19:15:45;;;;;;;17.98;8.35;;;;;;;1.95;100.00;102262.13;20732071;28;20057;-73
2023/02/06 19:25:46;;;;;;;11.77;5.43;;;;;;;1.93;100.00;102269.81;20730338;28;20065;-73
2023/02/06 19:35:48;;;;;;;15.77;6.18;;;;;;;2.10;100.00;102273.19;20728967;28;20057;-72
2023/02/06 19:45:49;;;;;;;18.92;7.63;;;;;;;2.16;100.00;102286.44;20727694;28;20084;-72
2023/02/06 19:55:50;;;;;;;14.80;7.30;;;;;;;2.07;100.00;102293.75;20726962;28;20057;-72
2023/02/06 20:05:51;;;;;;;15.85;7.72;;;;;;;2.09;100.00;102307.59;20700512;28;20522;-72
2023/02/06 20:15:53;;;;;;;11.88;5.43;;;;;;;1.91;100.00;102310.16;20684116;28;20060;-73
2023/02/06 20:25:54;;;;;;;12.80;5.38;;;;;;;1.85;100.00;102321.88;20679419;28;20057;-72
2023/02/06 20:35:55;;;;;;;12.23;5.88;;;;;;;1.77;100.00;102335.31;20683145;28;20057;-72
2023/02/06 20:45:57;;;;;;;8.35;4.32;;;;;;;1.75;100.00;102342.06;20700863;28;20054;-72
2023/02/06 20:55:58;;;;;;;11.23;4.45;;;;;;;1.66;100.00;102349.34;20696140;28;20054;-72
2023/02/06 21:05:59;;;;;;;7.93;3.65;;;;;;;1.65;100.00;102345.00;20641470;28;20069;-72
2023/02/06 21:16:01;;;;;;;7.15;3.45;;;;;;;1.54;100.00;102351.31;20642139;28;20053;-72
2023/02/06 21:26:02;;;;;;;10.82;3.95;;;;;;;1.53;100.00;102336.59;20640439;28;20388;-72
2023/02/06 21:36:05;;;;;;;9.60;4.32;;;;;;;1.37;100.00;102321.13;20639562;28;20152;-73
2023/02/06 21:46:07;;;;;;;10.90;3.60;;;;;;;1.30;100.00;102321.63;20640147;28;20258;-72
2023/02/06 21:56:08;;;;;;;7.47;3.40;;;;;;;1.21;100.00;102310.00;20663841;28;20574;-74
2023/02/06 22:06:10;;;;;;;8.50;4.05;;;;;;;1.09;100.00;102314.50;20723685;28;20502;-74
2023/02/06 22:16:11;;;;;;;11.38;4.57;;;;;;;0.84;100.00;102321.75;20726954;28;20053;-73
2023/02/06 22:26:13;;;;;;;10.57;4.70;;;;;;;0.83;100.00;102309.66;20720539;28;20056;-73
2023/02/06 22:36:14;;;;;;;8.50;4.10;;;;;;;1.11;100.00;102318.06;20722520;28;20053;-73
2023/02/06 22:46:15;;;;;;;11.25;5.60;;;;;;;1.16;100.00;102313.16;20757220;28;20418;-73
2023/02/06 22:56:26;;;;;;;9.27;3.80;;;;;;;1.08;100.00;102319.59;20814331;28;20053;-73
2023/02/06 23:06:27;;;;;;;11.30;4.63;;;;;;;0.87;100.00;102316.75;20813994;28;20088;-74
2023/02/06 23:16:28;;;;;;;9.80;4.30;;;;;;;0.67;100.00;102319.13;20815714;28;20084;-74
2023/02/06 23:26:30;;;;;;;9.70;4.38;;;;;;;0.53;100.00;102320.06;20816274;28;20528;-73
2023/02/06 23:36:31;;;;;;;8.98;4.40;;;;;;;0.46;100.00;102342.00;20867556;28;20064;-74
2023/02/06 23:46:33;;;;;;;11.23;4.50;;;;;;;0.47;100.00;102345.47;20896989;28;20464;-73
2023/02/06 23:56:34;;;;;;;11.02;4.50;;;;;;;0.50;100.00;102340.50;20895202;28;20064;-74
